Northam Composite, Western Australia

7:46 AM WST on August 31, 2014 (GMT +0800)
Koojedda | Change Station
CLOSE
Current Station
Personal Weather Station
Location: Bakers Hill, WESTERN AUSTRALIA
Elevation: 1047 ft
Nearby Weather Stations

Elev 1047 ft 31.74 °S, 116.44 °E | Updated 59 seconds ago

Mostly Cloudy
Mostly Cloudy
50.2 °F
Feels Like 50.2 °F
N
0.0
Wind Variable Wind from SW
Gusts 3.0 mph

Today
High -- | Low -- °F
--% Chance of Precip.
Yesterday
High -- | Low -- °F
Precip. -- in
6:31 AM 5:56 PM
Waxing Crescent, 25% visible
Pressure 30.06 in
Visibility 6.2 miles
Clouds Few 1500 ft
Mostly Cloudy 14000 ft
Dew Point 49 °F
Humidity 96%
Rainfall 0.02 in
Snow Depth Not available.
UV 0.0 out of 12
Pollen Not available.
Air Quality Not available.
Flu Activity Not available.
METAR YPPH 302330Z 07006KT 9999 FEW015 BKN140 11/10 Q1018

More Conditions Fewer Conditions

Pressure 30.06 in
Visibility 6.2 miles
Clouds Few 1500 ft
Mostly Cloudy 14000 ft
Dew Point 49 °F
Humidity 96%
Rainfall 0.02 in
Snow Depth Not available.
UV 0.0 out of 12
Pollen Not available.
Air Quality Not available.
Flu Activity Not available.
METAR YPPH 302330Z 07006KT 9999 FEW015 BKN140 11/10 Q1018

More Conditions Fewer Conditions

10-Day Weather Forecast

Almanac

Astronomy

Aug. 31, 2014 Rise Set
Actual Time 6:31 AM WST 5:56 PM WST
Civil Twilight 6:07 AM WST 6:20 PM WST
Nautical Twilight 5:38 AM WST 6:49 PM WST
Astronomical Twilight 5:10 AM WST 7:17 PM WST
Moon 9:32 AM WST (8/31) 11:06 PM WST (8/31)
Length of Visible Light 12h 13m
Length of Day
11h 24m
Tomorrow will be 1m 48s longer.
Waxing Crescent, 25% of the Moon is Illuminated
Aug 30
Waxing Crescent
Sep 2
First Quarter
Sep 8
Full
Sep 15
Last Quarter
Sep 24
New

Yesterday's Extremes

Country Highs Country Lows

Community

WunderPhotos

Upload Photos

1,748,676 photos uploaded!

Nearby

Snow Depth

Not available.

Earthquake Activity

City Distance Mag. Time & Date
No recent earthquake activity has been reported nearby.
Minimum magnitude displayed is 2.5.

Coastal Water Temperatures

Place Temperature
No Stations Reporting

Nearby Weather Stations